PILOTS ONLINE: 410    ATC ONLINE: 68

KNXP

Twentynine Palms (Self) Airport

Location

City Twentynine Palms
Country  United States
Latitude 34° 17' 46" N
Longitude 116° 9' 43" W
Elevation 2051 ft
Type Medium Airport

Map

Weather

METAR
2014/10/24 22:56
KNXP 242256Z 11014KT 10SM CLR 32/04 A3003 RMK AO2 SLP135 T03170044 
TAF
2014/10/24 21:12
TAF KNXP 2421/2521 15010KT 9999 SKC QNH3000INS 
      BECMG 2507/2509 26005KT 9999 SKC QNH3005INS T32/2423Z T13/2513Z

Runways

10/28 8015 ft / 150 ft

Outbound flights

Callsign Flying to Pilot ATD/STD ETA Aircraft

Inbound flights

Callsign Flying from Pilot ATD ETA Aircraft